West Leroy, Pennsylvania
Current Conditions -  °F | °C
As of 11:55 AM on Tuesday 27 Jan 2015 (Local Time) from KN38 Reporting Station
Clear Clear  
Wind Chill:   Ceiling: Unl
Heat Index: 19°   Visibility: 10mi
Dew Point:   Wind: 14mph
Humidity: 58%   Direction: 340°NNW
Pressure: 29.79"   Gusts: NA
Location:  41.669°N, 76.8999°W
Report Text: KN38 271655Z AUTO 34012KT 10SM CLR M07/M14 A2979 RMK AO2
Loading
Personal Weather Stations






























Interactive Weather Map New forecast layout! Learn more

10-Day Weather Forecast

Advertisements
Track Severe Weather on mobile